Time;durP1;ratioP1;P1;durP2;ratioP2;P2;SDS_P1;SDS_P2;PMS_P1;PMS_P2;Temp;Humidity;BMP_temperature;BMP_pressure;BME280_temperature;BME280_humidity;BME280_pressure;Samples;Min_cycle;Max_cycle;Signal;HPM_P1;HPM_P2
2022/09/02 00:02:22;;;;;;;4.10;2.50;;;;;;;24.68;36.66;100705.41;5076704;28;20052;-64
2022/09/02 00:04:49;;;;;;;5.13;2.85;;;;;;;24.43;37.53;100711.97;5086094;28;20052;-65
2022/09/02 00:07:17;;;;;;;5.88;2.70;;;;;;;24.37;37.62;100710.75;5061652;28;20064;-65
2022/09/02 00:09:44;;;;;;;11.65;3.20;;;;;;;24.15;37.94;100703.59;5056675;28;20152;-66
2022/09/02 00:12:11;;;;;;;6.63;2.60;;;;;;;24.12;38.05;100706.41;5056663;28;20049;-66
2022/09/02 00:14:39;;;;;;;5.18;2.30;;;;;;;24.25;38.27;100702.75;5072117;28;20064;-66
2022/09/02 00:17:06;;;;;;;6.68;2.95;;;;;;;24.29;37.94;100699.91;5056135;28;20045;-65
2022/09/02 00:19:34;;;;;;;7.45;2.88;;;;;;;24.53;38.23;100699.03;5056605;28;20053;-65
2022/09/02 00:22:01;;;;;;;3.90;2.55;;;;;;;24.39;38.03;100693.47;5056102;28;20060;-65
2022/09/02 00:24:30;;;;;;;6.43;2.58;;;;;;;24.42;37.51;100685.03;5074002;28;20412;-66
2022/09/02 00:26:57;;;;;;;5.00;2.65;;;;;;;24.62;37.80;100676.09;5057727;28;20045;-65
2022/09/02 00:29:25;;;;;;;6.45;2.58;;;;;;;24.57;37.97;100676.47;5075904;28;20057;-65
2022/09/02 00:31:53;;;;;;;3.78;2.47;;;;;;;24.60;37.33;100676.47;5076210;28;20055;-65
2022/09/02 00:34:21;;;;;;;4.55;2.67;;;;;;;24.48;38.06;100669.28;5058631;28;20052;-65
2022/09/02 00:36:48;;;;;;;5.13;2.88;;;;;;;24.29;38.55;100666.13;5058172;28;20045;-65
2022/09/02 00:39:16;;;;;;;5.13;2.83;;;;;;;24.17;38.05;100667.41;5076235;28;20052;-65
2022/09/02 00:41:44;;;;;;;6.18;3.03;;;;;;;24.24;38.36;100664.56;5041458;28;20052;-66
2022/09/02 00:44:15;;;;;;;5.97;2.92;;;;;;;24.13;38.83;100672.22;5058292;28;20055;-65
2022/09/02 00:46:42;;;;;;;6.35;3.22;;;;;;;24.20;39.44;100675.00;5057935;28;20045;-66
2022/09/02 00:49:15;;;;;;;10.10;3.22;;;;;;;24.25;38.41;100663.34;5075964;28;20060;-65
2022/09/02 00:51:44;;;;;;;4.75;2.72;;;;;;;24.17;38.61;100675.84;5057734;28;20056;-65
2022/09/02 00:54:12;;;;;;;4.95;3.10;;;;;;;24.13;38.77;100677.06;5058607;28;20400;-65
2022/09/02 00:56:41;;;;;;;5.60;2.95;;;;;;;24.25;38.92;100673.81;5057803;28;20040;-66
2022/09/02 00:59:13;;;;;;;9.25;3.25;;;;;;;24.21;38.85;100678.63;5075020;28;20057;-66
2022/09/02 01:01:40;;;;;;;5.90;3.63;;;;;;;24.10;39.07;100675.03;5057783;28;20049;-66
2022/09/02 01:04:07;;;;;;;5.70;3.30;;;;;;;24.34;38.70;100666.53;5079299;28;20036;-65
2022/09/02 01:06:35;;;;;;;5.68;2.95;;;;;;;24.35;39.08;100659.69;5053674;28;20052;-65
2022/09/02 01:09:07;;;;;;;5.82;3.10;;;;;;;24.20;39.53;100665.78;5055443;28;20447;-65
2022/09/02 01:11:38;;;;;;;8.70;3.60;;;;;;;24.27;39.40;100660.91;5004927;28;20424;-65
2022/09/02 01:14:06;;;;;;;5.15;3.13;;;;;;;24.14;39.44;100659.78;5038132;28;20053;-67
2022/09/02 01:16:41;;;;;;;6.65;3.50;;;;;;;24.11;39.43;100660.56;5037293;28;20416;-66
2022/09/02 01:19:24;;;;;;;6.55;2.90;;;;;;;24.31;39.32;100656.09;5055555;28;20590;-66
2022/09/02 01:21:56;;;;;;;5.07;2.90;;;;;;;24.13;39.64;100663.00;5070089;28;20056;-67
2022/09/02 01:24:27;;;;;;;7.13;3.22;;;;;;;24.12;40.09;100662.19;5054044;28;20071;-66
2022/09/02 01:26:57;;;;;;;6.47;3.05;;;;;;;24.04;40.09;100654.94;5057265;28;20051;-65
2022/09/02 01:29:25;;;;;;;6.47;3.20;;;;;;;24.32;39.51;100648.44;5056924;28;20080;-65
2022/09/02 01:31:53;;;;;;;8.00;3.10;;;;;;;24.10;39.64;100660.97;5059586;28;20053;-66
2022/09/02 01:34:20;;;;;;;6.30;3.28;;;;;;;23.93;40.22;100656.97;5036600;28;20055;-66
2022/09/02 01:36:47;;;;;;;6.05;2.92;;;;;;;23.90;40.78;100654.16;5054337;28;20064;-66
2022/09/02 01:39:15;;;;;;;5.38;2.95;;;;;;;23.90;40.60;100651.34;5036698;28;20049;-66
2022/09/02 01:41:43;;;;;;;6.10;2.95;;;;;;;23.89;40.29;100647.72;5037040;28;20040;-66
2022/09/02 01:44:11;;;;;;;4.90;2.85;;;;;;;23.93;40.31;100651.34;5037297;28;20415;-65
2022/09/02 01:46:39;;;;;;;6.22;3.28;;;;;;;24.02;40.31;100648.94;5036553;28;20037;-65
2022/09/02 01:49:06;;;;;;;7.22;3.00;;;;;;;23.83;40.66;100655.00;5054794;28;20056;-65
2022/09/02 01:51:34;;;;;;;5.28;3.20;;;;;;;24.04;40.54;100651.34;5036222;28;20049;-66
2022/09/02 01:54:01;;;;;;;7.35;3.30;;;;;;;23.86;40.85;100656.16;5053662;28;20057;-65
2022/09/02 01:56:29;;;;;;;6.00;3.25;;;;;;;23.74;41.01;100673.47;5020118;28;20543;-67
2022/09/02 01:59:01;;;;;;;6.47;3.58;;;;;;;23.92;41.22;100711.63;5037408;28;20056;-65
2022/09/02 02:01:28;;;;;;;6.17;3.23;;;;;;;23.94;41.03;100712.03;5054338;28;20075;-65
2022/09/02 02:03:56;;;;;;;4.75;2.90;;;;;;;23.89;41.05;100691.94;5040530;28;20060;-67
2022/09/02 02:06:24;;;;;;;6.95;2.92;;;;;;;23.80;41.39;100706.41;5055536;28;20048;-65
2022/09/02 02:08:52;;;;;;;6.85;3.08;;;;;;;23.71;41.46;100727.72;5035815;28;20049;-65
2022/09/02 02:11:24;;;;;;;8.05;3.00;;;;;;;23.50;41.56;100663.03;5019923;28;20056;-65
2022/09/02 02:14:01;;;;;;;4.38;3.03;;;;;;;23.46;41.39;100702.41;5054646;28;20052;-65
2022/09/02 02:16:28;;;;;;;4.97;2.78;;;;;;;23.57;41.71;100719.28;5053869;28;20064;-65
2022/09/02 02:18:56;;;;;;;5.32;3.20;;;;;;;23.55;41.73;100710.44;5036450;28;20458;-66
2022/09/02 02:21:24;;;;;;;7.97;3.60;;;;;;;23.72;41.83;100701.19;5053834;28;20052;-66
2022/09/02 02:23:52;;;;;;;9.95;3.20;;;;;;;23.59;41.39;100683.91;5066902;28;20389;-66
2022/09/02 02:26:19;;;;;;;6.18;3.40;;;;;;;23.80;41.40;100703.59;5060085;28;20044;-66
2022/09/02 02:28:47;;;;;;;5.97;3.20;;;;;;;23.69;41.26;100699.19;5020478;28;20060;-66
2022/09/02 02:31:15;;;;;;;6.00;2.90;;;;;;;23.59;42.00;100697.19;5036093;28;20045;-66
2022/09/02 02:33:43;;;;;;;6.50;3.08;;;;;;;23.38;41.97;100689.53;5069899;28;20041;-67
2022/09/02 02:36:11;;;;;;;10.07;3.65;;;;;;;23.34;41.83;100691.56;5053890;28;20053;-67
2022/09/02 02:38:39;;;;;;;6.57;2.97;;;;;;;23.25;42.37;100691.09;5036716;28;20049;-66
2022/09/02 02:41:07;;;;;;;6.00;3.05;;;;;;;23.54;41.69;100689.94;5053647;28;20498;-65
2022/09/02 02:43:35;;;;;;;7.57;3.20;;;;;;;23.31;42.13;100693.16;5036558;28;20048;-66
2022/09/02 02:46:03;;;;;;;4.70;3.10;;;;;;;23.02;42.38;100694.28;5035991;28;20045;-66
2022/09/02 02:48:32;;;;;;;6.18;3.25;;;;;;;22.81;42.64;100694.22;5036050;28;20072;-65
2022/09/02 02:51:00;;;;;;;5.13;3.25;;;;;;;22.75;43.14;100678.16;5039302;28;20052;-65
2022/09/02 02:53:29;;;;;;;5.85;2.92;;;;;;;23.03;42.74;100678.22;5073834;28;20064;-65
2022/09/02 02:55:58;;;;;;;7.73;2.87;;;;;;;22.87;42.83;100675.78;5039993;28;20057;-65
2022/09/02 02:58:26;;;;;;;6.28;2.92;;;;;;;22.54;43.16;100676.06;5039700;28;20310;-65
2022/09/02 03:00:54;;;;;;;6.82;3.80;;;;;;;22.31;43.87;100672.72;5040043;28;20057;-65
2022/09/02 03:03:22;;;;;;;6.43;2.88;;;;;;;22.24;44.44;100675.50;5058547;28;20049;-65
2022/09/02 03:05:53;;;;;;;6.18;3.22;;;;;;;22.34;44.51;100675.56;5081598;28;20056;-65
2022/09/02 03:08:21;;;;;;;8.35;3.88;;;;;;;22.08;45.24;100664.59;5040109;28;20536;-65
2022/09/02 03:10:53;;;;;;;12.75;3.90;;;;;;;21.81;46.33;100668.81;5039571;28;20447;-66
2022/09/02 03:13:24;;;;;;;9.07;4.35;;;;;;;21.78;46.95;100668.78;5040243;28;20053;-66
2022/09/02 03:15:53;;;;;;;9.07;4.53;;;;;;;21.75;47.44;100666.72;5039320;28;20064;-64
2022/09/02 03:18:21;;;;;;;8.35;4.50;;;;;;;22.09;46.82;100654.97;5023899;28;20045;-64
2022/09/02 03:20:49;;;;;;;8.40;5.28;;;;;;;22.20;47.79;100663.44;5039659;28;20053;-64
2022/09/02 03:23:18;;;;;;;8.68;5.25;;;;;;;22.15;48.31;100663.81;5047204;28;20051;-64
2022/09/02 03:25:48;;;;;;;12.88;5.88;;;;;;;22.19;48.63;100664.66;5059246;28;20530;-65
2022/09/02 03:28:25;;;;;;;10.52;6.80;;;;;;;21.99;49.45;100660.50;5059731;28;20040;-64
2022/09/02 03:30:53;;;;;;;15.43;6.45;;;;;;;21.82;50.79;100661.22;5075821;28;20053;-64
2022/09/02 03:33:22;;;;;;;13.77;5.97;;;;;;;21.63;52.51;100658.63;5043541;28;20431;-64
2022/09/02 03:35:50;;;;;;;10.98;6.00;;;;;;;21.74;51.66;100654.72;5076569;28;20286;-64
2022/09/02 03:38:18;;;;;;;13.10;6.28;;;;;;;21.47;53.59;100658.09;5077208;28;20052;-65
2022/09/02 03:40:45;;;;;;;12.73;6.38;;;;;;;21.51;53.35;100645.75;5077173;28;20040;-66
2022/09/02 03:43:13;;;;;;;11.27;6.05;;;;;;;21.57;53.60;100648.97;5059583;28;20518;-66
2022/09/02 03:45:42;;;;;;;12.05;6.32;;;;;;;21.75;52.66;100638.69;5059036;28;20055;-65
2022/09/02 03:48:13;;;;;;;9.60;5.95;;;;;;;21.87;52.08;100628.00;5059338;28;20409;-66
2022/09/02 03:50:43;;;;;;;12.35;6.00;;;;;;;22.13;51.21;100630.53;5025959;28;20404;-66
2022/09/02 03:53:15;;;;;;;13.38;6.57;;;;;;;21.85;51.41;100636.00;5042045;28;20060;-65
2022/09/02 03:55:49;;;;;;;11.57;6.72;;;;;;;21.48;52.59;100634.50;5076520;28;20063;-65
2022/09/02 03:58:18;;;;;;;11.37;6.40;;;;;;;21.77;51.68;100639.13;5076212;28;20403;-65
2022/09/02 04:00:52;;;;;;;11.25;6.78;;;;;;;21.62;51.60;100638.19;5035498;28;20296;-66
2022/09/02 04:03:21;;;;;;;13.93;6.82;;;;;;;21.59;52.13;100639.00;5039157;28;20072;-65
2022/09/02 04:05:51;;;;;;;11.10;6.00;;;;;;;21.43;52.51;100643.28;5062652;28;20056;-65
2022/09/02 04:08:19;;;;;;;10.80;5.45;;;;;;;21.55;52.52;100638.16;5038991;28;20057;-65
2022/09/02 04:10:47;;;;;;;11.15;6.10;;;;;;;20.99;54.00;100641.25;5022042;28;20056;-65
2022/09/02 04:13:15;;;;;;;12.55;6.05;;;;;;;21.01;54.54;100647.28;5056942;28;20056;-65
2022/09/02 04:15:46;;;;;;;10.77;5.28;;;;;;;21.31;52.97;100644.38;5056280;28;20048;-66
2022/09/02 04:18:16;;;;;;;9.93;5.63;;;;;;;21.39;52.92;100636.84;5038902;28;20065;-65
2022/09/02 04:20:44;;;;;;;15.05;5.75;;;;;;;21.39;52.82;100634.84;5021500;28;20045;-65
2022/09/02 04:23:12;;;;;;;9.45;5.40;;;;;;;21.48;52.49;100635.28;5045660;28;20412;-65
2022/09/02 04:25:42;;;;;;;9.98;4.68;;;;;;;21.77;51.86;100617.50;5058156;28;20053;-65
2022/09/02 04:28:11;;;;;;;9.13;4.83;;;;;;;21.74;51.69;100615.44;5058622;28;20037;-65
2022/09/02 04:30:40;;;;;;;13.82;6.55;;;;;;;21.90;51.41;100617.97;5057956;28;20060;-65
2022/09/02 04:33:08;;;;;;;14.38;8.20;;;;;;;21.96;51.48;100611.63;5058586;28;20059;-65
2022/09/02 04:35:40;;;;;;;15.63;8.25;;;;;;;21.95;51.89;100626.03;5075610;28;20049;-65
2022/09/02 04:38:08;;;;;;;15.07;8.70;;;;;;;21.94;52.38;100641.25;5057491;28;20053;-64
2022/09/02 04:40:44;;;;;;;16.23;9.63;;;;;;;22.00;52.06;100648.88;5057966;28;20045;-66
2022/09/02 04:43:12;;;;;;;15.25;10.00;;;;;;;21.89;52.89;100658.44;5058440;28;20480;-66
2022/09/02 04:45:42;;;;;;;15.90;9.57;;;;;;;21.59;54.28;100644.59;5057590;28;20405;-66
2022/09/02 04:48:10;;;;;;;14.65;9.27;;;;;;;21.80;54.10;100630.75;5058327;28;20404;-65
2022/09/02 04:50:40;;;;;;;15.48;9.15;;;;;;;21.77;55.13;100622.28;5057429;28;20048;-67
2022/09/02 04:53:08;;;;;;;16.10;8.90;;;;;;;21.85;55.60;100619.16;5058032;28;20051;-65
2022/09/02 04:55:39;;;;;;;15.85;8.30;;;;;;;21.49;57.05;100610.88;5041074;28;20044;-65
2022/09/02 04:58:09;;;;;;;12.45;7.30;;;;;;;21.53;57.69;100612.50;5057517;28;20498;-66
2022/09/02 05:00:38;;;;;;;12.07;6.82;;;;;;;21.36;58.19;100612.41;5057484;28;20059;-66
2022/09/02 05:03:10;;;;;;;14.50;7.10;;;;;;;21.07;59.77;100602.94;5042011;28;20056;-67
2022/09/02 05:05:39;;;;;;;18.13;6.93;;;;;;;21.01;60.35;100596.88;5064853;28;20052;-67
2022/09/02 05:08:11;;;;;;;10.70;6.47;;;;;;;20.91;61.90;100599.53;5037622;28;20060;-66
2022/09/02 05:10:40;;;;;;;10.10;5.93;;;;;;;20.78;62.77;100603.84;5037329;28;20447;-67
2022/09/02 05:13:07;;;;;;;16.17;7.05;;;;;;;20.79;63.15;100611.03;5037746;28;20056;-66
2022/09/02 05:15:39;;;;;;;11.77;7.30;;;;;;;20.62;64.02;100609.66;5070443;28;20064;-66
2022/09/02 05:18:09;;;;;;;10.80;6.78;;;;;;;20.73;64.32;100610.56;5037147;28;20470;-67
2022/09/02 05:20:38;;;;;;;16.13;6.68;;;;;;;20.84;63.97;100622.69;5037691;28;20055;-67
2022/09/02 05:23:06;;;;;;;9.25;6.47;;;;;;;20.85;64.79;100621.50;5043194;28;20063;-67
2022/09/02 05:25:35;;;;;;;13.77;6.90;;;;;;;20.70;64.81;100630.13;5075286;28;20056;-67
2022/09/02 05:28:03;;;;;;;9.57;6.10;;;;;;;20.76;65.04;100629.41;5057409;28;20048;-66
2022/09/02 05:30:31;;;;;;;14.05;6.88;;;;;;;20.77;64.82;100627.41;5057146;28;20056;-65
2022/09/02 05:32:59;;;;;;;13.25;6.60;;;;;;;20.84;64.68;100627.47;5040518;28;20056;-66
2022/09/02 05:35:28;;;;;;;13.60;5.93;;;;;;;20.94;64.42;100626.78;5056843;28;20060;-66
2022/09/02 05:37:55;;;;;;;13.32;5.50;;;;;;;20.84;64.10;100627.47;5057251;28;20199;-65
2022/09/02 05:40:27;;;;;;;11.05;5.70;;;;;;;20.68;64.65;100622.13;5056038;28;20130;-65
2022/09/02 05:42:56;;;;;;;11.27;6.55;;;;;;;20.76;64.31;100623.81;5057448;28;20499;-66
2022/09/02 05:45:23;;;;;;;10.48;5.90;;;;;;;20.81;64.16;100631.06;5055267;28;20059;-67
2022/09/02 05:47:51;;;;;;;10.82;5.82;;;;;;;20.65;64.20;100628.50;5037181;28;20407;-67
2022/09/02 05:50:19;;;;;;;8.48;5.55;;;;;;;20.76;63.41;100623.00;5036613;28;20072;-67
2022/09/02 05:52:50;;;;;;;7.93;5.30;;;;;;;20.75;62.62;100622.19;5037159;28;20085;-66
2022/09/02 05:55:20;;;;;;;8.05;5.00;;;;;;;20.75;62.79;100616.59;5054587;28;20496;-66
2022/09/02 05:57:48;;;;;;;9.25;5.40;;;;;;;20.74;62.73;100619.78;5020070;28;20057;-68
2022/09/02 06:00:16;;;;;;;8.38;5.50;;;;;;;20.58;62.42;100619.19;5036860;28;20056;-66
2022/09/02 06:02:51;;;;;;;9.48;5.35;;;;;;;20.51;62.41;100617.13;5037229;28;20049;-66
2022/09/02 06:05:25;;;;;;;10.55;5.80;;;;;;;20.51;62.61;100628.31;5060161;28;20052;-67
2022/09/02 06:08:00;;;;;;;11.65;5.63;;;;;;;20.50;62.05;100628.72;5036375;28;20061;-66
2022/09/02 06:10:30;;;;;;;12.32;5.40;;;;;;;20.45;62.49;100641.03;5069707;28;20048;-66
2022/09/02 06:12:58;;;;;;;8.37;5.33;;;;;;;20.42;62.76;100629.81;5037046;28;20053;-67
2022/09/02 06:15:29;;;;;;;11.00;6.05;;;;;;;20.42;63.26;100627.81;5020504;28;20045;-66
2022/09/02 06:17:59;;;;;;;11.88;5.45;;;;;;;20.25;63.60;100624.78;5036627;28;20611;-67
2022/09/02 06:20:31;;;;;;;13.93;6.00;;;;;;;20.39;63.57;100630.56;5053906;28;20416;-67
2022/09/02 06:23:00;;;;;;;15.65;5.50;;;;;;;20.58;62.75;100634.00;5041625;28;20127;-66
2022/09/02 06:25:27;;;;;;;11.00;5.82;;;;;;;20.63;62.41;100624.44;5055837;28;20061;-66
2022/09/02 06:27:55;;;;;;;14.02;5.72;;;;;;;20.55;62.69;100628.38;5056589;28;20055;-66
2022/09/02 06:30:22;;;;;;;10.52;5.68;;;;;;;20.35;63.03;100629.72;5056162;28;20431;-66
2022/09/02 06:32:50;;;;;;;10.50;5.43;;;;;;;20.50;62.41;100625.91;5040141;28;20049;-66
2022/09/02 06:35:19;;;;;;;11.82;6.20;;;;;;;20.52;62.29;100620.75;5056133;28;20059;-68
2022/09/02 06:37:47;;;;;;;8.40;5.53;;;;;;;20.51;62.31;100624.72;5056329;28;20079;-68
2022/09/02 06:40:15;;;;;;;15.23;5.97;;;;;;;20.36;62.55;100620.16;5055964;28;20040;-67
2022/09/02 06:42:43;;;;;;;9.82;6.07;;;;;;;20.47;61.95;100626.69;5056369;28;20412;-67
2022/09/02 06:45:30;;;;;;;9.90;6.13;;;;;;;20.50;61.59;100632.31;5056050;28;20147;-66
2022/09/02 06:48:00;;;;;;;8.23;5.63;;;;;;;20.36;61.70;100614.56;5040731;28;20052;-67
2022/09/02 06:50:33;;;;;;;12.23;5.88;;;;;;;20.31;62.00;100615.69;5055482;28;20739;-66
2022/09/02 06:53:02;;;;;;;11.90;5.93;;;;;;;20.36;62.16;100620.97;5055530;28;20064;-66
2022/09/02 06:55:30;;;;;;;12.38;6.13;;;;;;;20.48;61.64;100629.09;5036976;28;20044;-68
2022/09/02 06:57:57;;;;;;;11.30;5.97;;;;;;;20.45;61.86;100620.66;5069411;28;20046;-67
2022/09/02 07:00:25;;;;;;;12.43;6.40;;;;;;;20.42;61.44;100619.41;5068773;28;20040;-69
2022/09/02 07:05:08;;;;;;;9.10;5.85;;;;;;;20.40;61.36;100621.00;5036312;28;20045;-66
2022/09/02 07:05:40;;;;;;;12.52;6.50;;;;;;;20.49;61.46;100630.69;5081565;28;20057;-66
2022/09/02 07:08:08;;;;;;;11.10;5.65;;;;;;;20.49;60.95;100624.28;5053717;28;20061;-67
2022/09/02 07:10:38;;;;;;;10.25;5.80;;;;;;;20.39;61.30;100619.38;5019523;28;20041;-66
2022/09/02 07:13:07;;;;;;;11.40;6.00;;;;;;;20.40;61.33;100624.59;5020395;28;20128;-66
2022/09/02 07:15:35;;;;;;;10.35;5.53;;;;;;;20.47;61.06;100621.09;5035779;28;20075;-66
2022/09/02 07:18:03;;;;;;;9.95;5.60;;;;;;;20.60;60.22;100614.03;5053514;28;20049;-67
2022/09/02 07:20:34;;;;;;;14.88;6.05;;;;;;;20.58;60.24;100614.41;5068179;28;20392;-67
2022/09/02 07:23:03;;;;;;;10.50;5.18;;;;;;;20.75;59.67;100602.59;5040943;28;20045;-66
2022/09/02 07:25:33;;;;;;;9.75;5.68;;;;;;;20.53;59.13;100609.16;5055407;28;20044;-68
2022/09/02 07:28:00;;;;;;;9.57;5.28;;;;;;;20.58;59.63;100606.03;5073920;28;20119;-68
2022/09/02 07:30:31;;;;;;;11.27;5.78;;;;;;;20.44;59.81;100605.84;5055607;28;20058;-66
2022/09/02 07:33:12;;;;;;;11.50;5.22;;;;;;;20.66;59.62;100615.31;5055952;28;20051;-67
2022/09/02 07:35:42;;;;;;;9.00;5.70;;;;;;;20.62;58.71;100614.44;5057457;28;20075;-66
2022/09/02 07:38:10;;;;;;;14.93;5.53;;;;;;;20.54;59.09;100607.19;5042708;28;20542;-66
2022/09/02 07:40:40;;;;;;;7.30;4.93;;;;;;;20.76;59.08;100611.81;5058664;28;20048;-67
2022/09/02 07:43:09;;;;;;;8.90;5.07;;;;;;;21.08;58.32;100612.94;5042650;28;20048;-67
2022/09/02 07:45:38;;;;;;;12.18;5.63;;;;;;;21.22;57.04;100618.66;5076119;28;20055;-65
2022/09/02 07:48:06;;;;;;;14.20;5.75;;;;;;;21.18;57.35;100620.66;5058375;28;20056;-67
2022/09/02 07:50:36;;;;;;;13.82;4.57;;;;;;;21.03;57.42;100618.91;5058290;28;20056;-67
2022/09/02 07:53:06;;;;;;;;;;;;;;;21.21;57.04;100633.88;5059605;28;20052;-67
2022/09/02 07:55:38;;;;;;;28.70;5.72;;;;;;;21.24;56.85;100630.28;5058767;28;20756;-67
2022/09/02 07:58:07;;;;;;;10.80;4.93;;;;;;;21.36;56.02;100632.78;5058879;28;20049;-66
2022/09/02 08:00:35;;;;;;;8.45;5.35;;;;;;;21.31;56.10;100629.53;5076477;28;20037;-66
2022/09/02 08:03:10;;;;;;;10.00;5.15;;;;;;;21.17;56.11;100633.84;5059223;28;20049;-67
2022/09/02 08:05:43;;;;;;;9.30;5.07;;;;;;;21.17;56.00;100647.03;5066670;28;20988;-65
2022/09/02 08:08:12;;;;;;;8.38;4.82;;;;;;;21.27;55.36;100645.53;5056795;28;20532;-67
2022/09/02 08:10:40;;;;;;;9.77;4.93;;;;;;;21.33;55.31;100647.59;5056327;28;20045;-67
2022/09/02 08:13:07;;;;;;;10.20;4.40;;;;;;;21.27;54.59;100648.34;5057418;28;20056;-67
2022/09/02 08:15:35;;;;;;;11.30;4.60;;;;;;;21.38;54.09;100652.84;5056689;28;20048;-67
2022/09/02 08:18:03;;;;;;;10.55;4.13;;;;;;;21.18;53.92;100659.88;5056762;28;20049;-67
2022/09/02 08:20:30;;;;;;;8.98;4.50;;;;;;;21.42;54.07;100676.09;5056213;28;20071;-67
2022/09/02 08:22:58;;;;;;;10.52;4.30;;;;;;;21.54;53.16;100681.41;5026582;28;20062;-67
2022/09/02 08:25:45;;;;;;;11.43;5.50;;;;;;;21.59;53.54;100683.03;5076461;28;20403;-67
2022/09/02 08:28:12;;;;;;;23.60;6.28;;;;;;;21.92;53.81;100703.34;5076606;28;20407;-67
2022/09/02 08:30:40;;;;;;;18.15;7.20;;;;;;;22.03;53.96;100707.03;5042021;28;20049;-66
2022/09/02 08:33:07;;;;;;;13.70;5.40;;;;;;;21.91;55.79;100706.53;5076813;28;20049;-67
2022/09/02 08:35:34;;;;;;;16.48;5.72;;;;;;;21.74;57.33;100722.00;5058204;28;20052;-66
2022/09/02 08:38:03;;;;;;;14.68;5.65;;;;;;;21.84;57.32;100720.53;5076340;28;20522;-67
2022/09/02 08:40:35;;;;;;;11.35;5.85;;;;;;;21.96;57.62;100715.41;5058128;28;20596;-66
2022/09/02 08:43:06;;;;;;;14.10;6.03;;;;;;;;;;5076486;28;20055;-65
2022/09/02 08:45:39;;;;;;;10.63;5.43;;;;;;;21.87;59.17;100708.50;5075732;28;20059;-65
2022/09/02 08:48:40;;;;;;;11.23;6.55;;;;;;;21.88;59.28;100724.16;5057745;28;20056;-66
2022/09/02 08:51:12;;;;;;;12.68;6.10;;;;;;;21.42;61.24;100723.75;5023012;28;20059;-66
2022/09/02 08:54:03;;;;;;;17.10;8.90;;;;;;;21.42;60.71;100717.31;5076658;28;20488;-66
2022/09/02 08:56:31;;;;;;;16.42;8.10;;;;;;;21.35;61.01;100712.47;5075905;28;20059;-65
2022/09/02 08:59:01;;;;;;;13.80;6.63;;;;;;;21.50;60.22;100719.78;5058269;28;20047;-67
2022/09/02 09:01:35;;;;;;;14.35;7.47;;;;;;;21.36;60.53;100716.06;5057704;28;20052;-66
2022/09/02 09:04:05;;;;;;;14.25;6.63;;;;;;;21.26;61.08;100711.97;5079169;28;20694;-68
2022/09/02 09:06:37;;;;;;;;;;;;;;;21.35;61.19;100712.47;5021494;28;20041;-66
2022/09/02 09:09:19;;;;;;;13.10;6.40;;;;;;;21.46;60.69;100706.94;5055756;28;20394;-68
2022/09/02 09:12:01;;;;;;;14.18;6.05;;;;;;;21.53;60.83;100696.59;5054938;28;20048;-67
2022/09/02 09:14:34;;;;;;;10.18;6.82;;;;;;;21.66;59.83;100697.09;5055962;28;20381;-68
2022/09/02 09:17:28;;;;;;;11.45;5.85;;;;;;;21.52;59.08;100694.19;5055512;28;20048;-67
2022/09/02 09:19:59;;;;;;;15.75;6.20;;;;;;;21.65;59.25;100696.31;5021410;28;20044;-67
2022/09/02 09:22:36;;;;;;;21.00;7.25;;;;;;;21.75;58.67;100684.38;5021446;28;20060;-68
2022/09/02 09:25:10;;;;;;;16.98;8.80;;;;;;;21.78;58.97;100689.22;5075652;28;20519;-68
2022/09/02 09:27:38;;;;;;;17.13;8.82;;;;;;;21.82;58.49;100692.88;5075073;28;20063;-68
2022/09/02 09:30:08;;;;;;;16.23;7.78;;;;;;;22.10;57.44;100681.84;5074947;28;20072;-70
2022/09/02 09:32:53;;;;;;;12.73;5.70;;;;;;;22.14;57.48;100682.66;5037555;28;20067;-68
2022/09/02 09:35:21;;;;;;;23.00;12.05;;;;;;;22.25;57.18;100683.50;5055307;28;20064;-66
2022/09/02 09:37:53;;;;;;;18.88;9.90;;;;;;;22.32;56.94;100677.94;5055255;28;20052;-67
2022/09/02 09:40:24;;;;;;;10.27;6.32;;;;;;;21.98;56.74;100679.38;5038356;28;20059;-68
2022/09/02 09:43:04;;;;;;;11.80;6.80;;;;;;;21.72;57.42;100670.31;5057004;28;20053;-67
2022/09/02 09:45:43;;;;;;;14.57;6.35;;;;;;;22.21;56.39;100670.69;5074644;28;20415;-66
2022/09/02 09:48:28;;;;;;;17.00;6.13;;;;;;;22.49;55.85;100661.56;5040099;28;20056;-66
2022/09/02 09:50:56;;;;;;;12.70;6.10;;;;;;;22.44;55.69;100668.34;5056522;28;20055;-68
2022/09/02 09:53:25;;;;;;;12.07;5.72;;;;;;;22.29;56.11;100661.09;5075123;28;20511;-67
2022/09/02 09:56:04;;;;;;;16.60;6.63;;;;;;;22.41;56.32;100666.34;5056515;28;20059;-66
2022/09/02 09:58:50;;;;;;;9.98;6.18;;;;;;;22.45;55.41;100675.59;5056556;28;20291;-68
2022/09/02 10:01:30;;;;;;;10.80;6.40;;;;;;;22.39;56.39;100665.16;5074509;28;20638;-66
2022/09/02 10:04:03;;;;;;;19.27;7.68;;;;;;;22.05;56.84;100662.56;5042642;28;20059;-67
2022/09/02 10:06:47;;;;;;;13.05;6.75;;;;;;;22.43;56.25;100660.34;5067686;28;20519;-68
2022/09/02 10:09:18;;;;;;;24.88;7.95;;;;;;;22.93;55.59;100665.75;5033837;28;20543;-66
2022/09/02 10:12:00;;;;;;;16.55;6.80;;;;;;;22.95;56.07;100659.72;5035167;28;20041;-66
2022/09/02 10:14:32;;;;;;;22.80;8.05;;;;;;;23.23;55.69;100652.16;5032828;28;20061;-66
2022/09/02 10:17:18;;;;;;;19.45;12.77;;;;;;;22.95;55.58;100657.72;5034924;28;20056;-67
2022/09/02 10:20:07;;;;;;;30.98;19.27;;;;;;;23.02;55.15;100654.13;5033439;28;20412;-66
2022/09/02 10:22:40;;;;;;;26.77;19.80;;;;;;;22.91;55.16;100654.09;5034243;28;20056;-66
2022/09/02 10:25:42;;;;;;;25.67;19.65;;;;;;;22.95;55.29;100642.88;5053746;28;20420;-65
2022/09/02 10:28:30;;;;;;;22.40;14.13;;;;;;;23.08;54.63;100644.13;5053366;28;20059;-68
2022/09/02 10:31:19;;;;;;;19.63;8.43;;;;;;;23.32;52.67;100640.53;5054275;28;20128;-67
2022/09/02 10:34:02;;;;;;;20.35;11.60;;;;;;;22.71;54.71;100638.00;5053572;28;20057;-67
2022/09/02 10:36:51;;;;;;;11.88;7.38;;;;;;;22.64;54.44;100638.81;5052111;28;20048;-68
2022/09/02 10:39:25;;;;;;;13.85;9.13;;;;;;;22.93;54.40;100637.66;5054170;28;20048;-68
2022/09/02 10:41:57;;;;;;;17.45;8.77;;;;;;;23.23;53.85;100646.53;5052897;28;20623;-69
2022/09/02 10:44:29;;;;;;;11.43;7.70;;;;;;;22.94;54.39;100644.91;5035570;28;20075;-69
2022/09/02 10:47:00;;;;;;;16.52;8.80;;;;;;;22.97;54.85;100637.66;5054128;28;20048;-66
2022/09/02 10:50:01;;;;;;;18.52;8.70;;;;;;;23.17;54.83;100642.50;5054033;28;20064;-66
2022/09/02 10:53:12;;;;;;;21.13;10.55;;;;;;;23.37;54.50;100631.72;5053632;28;20060;-65
2022/09/02 10:55:49;;;;;;;23.83;8.50;;;;;;;23.29;54.68;100635.75;5052537;28;20052;-68
2022/09/02 10:58:41;;;;;;;22.73;9.27;;;;;;;23.03;54.99;100622.03;5054408;28;20049;-66
2022/09/02 11:01:13;;;;;;;120.25;14.30;;;;;;;23.01;55.03;100624.44;5053846;28;20541;-67
2022/09/02 11:04:19;;;;;;;83.60;13.52;;;;;;;23.16;54.97;100623.22;5054230;28;20048;-68
2022/09/02 11:06:54;;;;;;;673.28;52.15;;;;;;;23.32;54.72;100618.06;5037750;28;20080;-66
2022/09/02 11:09:47;;;;;;;102.20;15.23;;;;;;;23.33;53.93;100620.47;5033183;28;20057;-67
2022/09/02 11:12:30;;;;;;;44.40;11.90;;;;;;;23.01;54.76;100618.81;5033793;28;20052;-68
2022/09/02 11:15:17;;;;;;;15.07;8.30;;;;;;;22.57;55.25;100610.69;5020513;28;20492;-67
2022/09/02 11:17:51;;;;;;;17.23;8.32;;;;;;;22.57;55.51;100607.09;5020007;28;20073;-68
2022/09/02 11:20:29;;;;;;;17.65;8.40;;;;;;;22.58;56.15;100606.69;5036318;28;20083;-68
2022/09/02 11:23:15;;;;;;;15.00;8.20;;;;;;;22.54;56.20;100608.69;5008026;28;20061;-65
2022/09/02 11:26:17;;;;;;;17.95;7.82;;;;;;;22.41;56.64;100606.59;5056272;28;20052;-68
2022/09/02 11:29:04;;;;;;;15.13;7.80;;;;;;;22.59;56.59;100597.06;5056178;28;20049;-66
2022/09/02 11:31:38;;;;;;;14.65;8.05;;;;;;;22.50;57.07;100587.38;5057291;28;20554;-67
2022/09/02 11:34:25;;;;;;;16.27;8.35;;;;;;;22.57;56.64;100588.25;5039983;28;20061;-68
2022/09/02 11:36:53;;;;;;;16.52;8.82;;;;;;;22.56;56.92;100583.03;5057455;28;20053;-67
2022/09/02 11:39:48;;;;;;;19.50;9.32;;;;;;;22.56;57.14;100585.84;5056405;28;20075;-69
2022/09/02 11:43:02;;;;;;;13.80;9.75;;;;;;;22.44;58.17;100569.34;5057263;28;20049;-68
2022/09/02 11:45:30;;;;;;;14.27;9.38;;;;;;;22.47;58.34;100571.34;5056970;28;20676;-66